createdAt,value
2019-03-15T00:01:25.524Z,3.10
2019-03-15T00:03:57.373Z,3.03
2019-03-15T00:06:29.113Z,2.40
2019-03-15T00:09:00.936Z,2.37
2019-03-15T00:11:34.117Z,3.13
2019-03-15T00:14:06.562Z,2.67
2019-03-15T00:16:39.472Z,3.27
2019-03-15T00:19:11.357Z,3.50
2019-03-15T00:21:43.148Z,3.37
2019-03-15T00:24:14.859Z,3.43
2019-03-15T00:26:46.662Z,3.10
2019-03-15T00:29:18.403Z,3.17
2019-03-15T00:31:50.127Z,3.13
2019-03-15T00:34:21.938Z,3.00
2019-03-15T00:36:54.769Z,3.43
2019-03-15T00:39:26.517Z,3.40
2019-03-15T00:41:58.389Z,2.40
2019-03-15T00:44:30.185Z,2.40
2019-03-15T00:47:01.954Z,2.97
2019-03-15T00:49:33.811Z,3.23
2019-03-15T00:52:05.581Z,2.80
2019-03-15T00:54:37.400Z,3.80
2019-03-15T00:57:09.094Z,3.37
2019-03-15T00:59:40.848Z,3.30
2019-03-15T01:02:12.602Z,3.63
2019-03-15T01:04:44.341Z,3.57
2019-03-15T01:07:16.141Z,3.83
2019-03-15T01:09:47.904Z,3.03
2019-03-15T01:12:19.644Z,3.37
2019-03-15T01:14:51.383Z,3.37
2019-03-15T01:17:23.121Z,3.37
2019-03-15T01:19:54.838Z,3.43
2019-03-15T01:22:26.617Z,3.67
2019-03-15T01:24:58.423Z,3.73
2019-03-15T01:27:30.182Z,3.77
2019-03-15T01:30:01.964Z,4.17
2019-03-15T01:32:33.671Z,3.97
2019-03-15T01:35:05.944Z,3.90
2019-03-15T01:37:37.656Z,3.50
2019-03-15T01:40:09.468Z,4.20
2019-03-15T01:42:41.168Z,4.50
2019-03-15T01:45:14.362Z,3.40
2019-03-15T01:47:46.121Z,3.10
2019-03-15T01:50:17.986Z,3.67
2019-03-15T01:52:49.673Z,3.27
2019-03-15T01:55:21.511Z,2.93
2019-03-15T01:57:55.007Z,3.43
2019-03-15T02:00:26.779Z,2.90
2019-03-15T02:03:01.998Z,2.47
2019-03-15T02:05:31.887Z,2.87
2019-03-15T02:08:03.581Z,2.57
2019-03-15T02:10:35.326Z,2.67
2019-03-15T02:13:07.071Z,2.63
2019-03-15T02:15:38.850Z,2.40
2019-03-15T02:18:10.519Z,2.53
2019-03-15T02:20:42.209Z,2.43
2019-03-15T02:23:13.938Z,3.07
2019-03-15T02:25:45.788Z,3.10
2019-03-15T02:28:18.985Z,2.23
2019-03-15T02:30:50.688Z,2.33
2019-03-15T02:33:22.356Z,2.23
2019-03-15T02:35:54.043Z,2.47
2019-03-15T02:38:27.078Z,2.17
2019-03-15T02:40:59.012Z,3.10
2019-03-15T02:43:30.723Z,3.00
2019-03-15T02:46:02.414Z,2.30
2019-03-15T02:48:34.161Z,2.27
2019-03-15T02:51:05.874Z,2.60
2019-03-15T02:53:37.601Z,2.87
2019-03-15T02:56:11.148Z,3.67
2019-03-15T02:58:42.789Z,1.97
2019-03-15T03:01:14.499Z,2.60
2019-03-15T03:03:47.202Z,2.23
2019-03-15T03:06:19.043Z,1.90
2019-03-15T03:08:50.814Z,1.97
2019-03-15T03:11:22.627Z,2.17
2019-03-15T03:13:55.603Z,2.20
2019-03-15T03:16:27.298Z,2.10
2019-03-15T03:18:59.060Z,2.23
2019-03-15T03:21:30.747Z,2.47
2019-03-15T03:24:02.559Z,2.47
2019-03-15T03:26:34.272Z,2.23
2019-03-15T03:29:06.050Z,2.33
2019-03-15T03:31:37.784Z,2.17
2019-03-15T03:34:09.560Z,2.30
2019-03-15T03:36:41.296Z,2.50
2019-03-15T03:39:13.033Z,2.13
2019-03-15T03:41:44.752Z,3.10
2019-03-15T03:44:16.498Z,3.53
2019-03-15T03:46:48.178Z,2.70
2019-03-15T03:49:21.684Z,3.00
2019-03-15T03:51:53.378Z,3.70
2019-03-15T03:54:25.102Z,3.20
2019-03-15T03:56:56.893Z,3.50
2019-03-15T03:59:28.639Z,2.70
2019-03-15T04:02:00.468Z,3.00
2019-03-15T04:04:32.163Z,2.67
2019-03-15T04:07:04.083Z,2.70
2019-03-15T04:09:35.903Z,3.43
2019-03-15T04:12:07.818Z,2.70
2019-03-15T04:14:39.628Z,3.10
2019-03-15T04:17:11.397Z,2.97
2019-03-15T04:19:43.120Z,2.13
2019-03-15T04:22:16.222Z,2.20
2019-03-15T04:24:48.085Z,2.33
2019-03-15T04:27:19.753Z,2.87
2019-03-15T04:29:51.475Z,2.50
2019-03-15T04:32:23.197Z,2.57
2019-03-15T04:34:54.870Z,2.20
2019-03-15T04:37:26.567Z,2.53
2019-03-15T04:39:58.337Z,2.20
2019-03-15T04:42:30.086Z,2.27
2019-03-15T04:45:01.824Z,2.37
2019-03-15T04:47:33.641Z,2.03
2019-03-15T04:50:05.725Z,2.20
2019-03-15T04:52:37.422Z,2.67
2019-03-15T04:55:09.170Z,2.43
2019-03-15T04:57:40.974Z,2.40
2019-03-15T05:00:14.072Z,2.00
2019-03-15T05:02:45.926Z,3.03
2019-03-15T05:05:17.687Z,2.20
2019-03-15T05:07:50.942Z,2.23
2019-03-15T05:10:22.590Z,2.60
2019-03-15T05:12:54.333Z,2.30
2019-03-15T05:15:26.147Z,2.23
2019-03-15T05:17:57.882Z,2.30
2019-03-15T05:20:29.590Z,2.30
2019-03-15T05:23:01.306Z,2.33
2019-03-15T05:25:33.035Z,2.27
2019-03-15T05:28:04.730Z,2.43
2019-03-15T05:30:36.434Z,2.63
2019-03-15T05:33:08.092Z,2.10
2019-03-15T05:35:39.823Z,2.17
2019-03-15T05:38:11.560Z,2.27
2019-03-15T05:40:43.376Z,3.00
2019-03-15T05:43:15.112Z,2.43
2019-03-15T05:45:47.849Z,2.27
2019-03-15T05:48:19.649Z,2.30
2019-03-15T05:50:51.362Z,2.50
2019-03-15T05:53:23.121Z,2.27
2019-03-15T05:55:55.031Z,2.67
2019-03-15T05:58:26.926Z,2.17
2019-03-15T06:00:58.736Z,2.83
2019-03-15T06:03:30.478Z,2.23
2019-03-15T06:06:02.189Z,2.47
2019-03-15T06:08:34.140Z,2.60
2019-03-15T06:11:05.911Z,3.13
2019-03-15T06:13:37.577Z,2.37
2019-03-15T06:16:09.393Z,2.63
2019-03-15T06:18:41.116Z,2.90
2019-03-15T06:21:12.848Z,2.37
2019-03-15T06:23:44.626Z,2.37
2019-03-15T06:26:16.465Z,3.33
2019-03-15T06:28:48.503Z,2.80
2019-03-15T06:31:20.219Z,2.20
2019-03-15T06:33:52.112Z,2.53
2019-03-15T06:36:23.855Z,2.57
2019-03-15T06:38:55.927Z,2.40
2019-03-15T06:41:28.195Z,2.63
2019-03-15T06:44:01.531Z,2.70
2019-03-15T06:46:33.286Z,2.37
2019-03-15T06:49:05.061Z,2.20
2019-03-15T06:51:38.236Z,2.13
2019-03-15T06:54:11.913Z,2.37
2019-03-15T06:56:43.825Z,2.90
2019-03-15T06:59:15.524Z,2.17
2019-03-15T07:01:48.758Z,2.60
2019-03-15T07:04:20.658Z,3.07
2019-03-15T07:06:52.424Z,2.27
2019-03-15T07:09:24.420Z,2.47
2019-03-15T07:12:08.983Z,2.10
2019-03-15T07:14:31.333Z,2.27
2019-03-15T07:17:03.228Z,2.70
2019-03-15T07:19:35.019Z,2.33
2019-03-15T07:22:06.732Z,2.33
2019-03-15T07:24:38.518Z,2.40
2019-03-15T07:27:13.322Z,2.67
2019-03-15T07:29:43.663Z,2.80
2019-03-15T07:32:15.410Z,2.60
2019-03-15T07:34:47.158Z,2.47
2019-03-15T07:37:18.989Z,2.90
2019-03-15T07:39:50.930Z,2.13
2019-03-15T07:42:24.582Z,2.30
2019-03-15T07:44:56.308Z,2.83
2019-03-15T07:47:28.201Z,2.13
2019-03-15T07:50:00.038Z,2.30
2019-03-15T07:52:31.839Z,1.97
2019-03-15T07:55:03.652Z,1.93
2019-03-15T07:57:35.423Z,2.10
2019-03-15T08:00:08.281Z,2.30
2019-03-15T08:02:40.150Z,2.20
2019-03-15T08:05:13.484Z,3.00
2019-03-15T08:07:45.922Z,2.13
2019-03-15T08:10:18.906Z,2.23
2019-03-15T08:12:50.646Z,2.00
2019-03-15T08:15:22.359Z,2.17
2019-03-15T08:17:54.156Z,1.93
2019-03-15T08:20:25.908Z,2.27
2019-03-15T08:22:57.683Z,2.10
2019-03-15T08:25:30.476Z,2.13
2019-03-15T08:28:03.635Z,2.00
2019-03-15T08:30:37.111Z,2.20
2019-03-15T08:33:11.218Z,2.03
2019-03-15T08:35:43.188Z,1.80
2019-03-15T08:38:15.102Z,1.97
2019-03-15T08:40:47.920Z,1.90
2019-03-15T08:43:19.737Z,1.70
2019-03-15T08:45:51.438Z,1.70
2019-03-15T08:48:23.385Z,1.70
2019-03-15T08:50:55.315Z,1.47
2019-03-15T08:53:27.125Z,1.70
2019-03-15T08:55:58.854Z,1.50
2019-03-15T08:58:31.844Z,1.70
2019-03-15T09:01:03.582Z,1.67
2019-03-15T09:03:37.099Z,1.50
2019-03-15T09:06:08.953Z,1.60
2019-03-15T09:08:40.948Z,2.00
2019-03-15T09:11:12.695Z,2.17
2019-03-15T09:13:44.428Z,1.40
2019-03-15T09:16:17.458Z,1.90
2019-03-15T09:18:49.177Z,2.00
2019-03-15T09:21:21.122Z,1.80
2019-03-15T09:23:52.922Z,2.10
2019-03-15T09:26:24.641Z,2.30
2019-03-15T09:28:56.336Z,2.40
2019-03-15T09:31:33.624Z,2.87
2019-03-15T09:34:03.017Z,2.87
2019-03-15T09:36:34.768Z,3.53
2019-03-15T09:39:08.112Z,3.00
2019-03-15T09:41:40.376Z,3.30
2019-03-15T09:44:12.188Z,3.17
2019-03-15T09:46:43.902Z,3.43
2019-03-15T09:49:15.771Z,3.27
2019-03-15T09:51:47.511Z,3.10
2019-03-15T09:54:19.226Z,2.53
2019-03-15T09:56:51.014Z,2.37
2019-03-15T09:59:22.806Z,2.33
2019-03-15T10:01:54.624Z,2.30
2019-03-15T10:04:26.670Z,2.40
2019-03-15T10:06:58.474Z,2.20
2019-03-15T10:09:30.295Z,2.10
2019-03-15T10:12:02.637Z,2.13
2019-03-15T10:14:34.599Z,2.33
2019-03-15T10:17:07.218Z,2.10
2019-03-15T10:19:39.373Z,2.10
2019-03-15T10:22:11.258Z,2.20
2019-03-15T10:24:43.028Z,2.60
2019-03-15T10:27:14.903Z,2.10
2019-03-15T10:29:46.660Z,2.47
2019-03-15T10:32:18.397Z,2.37
2019-03-15T10:34:50.130Z,2.20
2019-03-15T10:37:22.034Z,2.50
2019-03-15T10:39:53.765Z,2.30
2019-03-15T10:42:25.904Z,2.67
2019-03-15T10:44:57.587Z,2.00
2019-03-15T10:47:29.339Z,2.40
2019-03-15T10:50:01.067Z,2.30
2019-03-15T10:52:33.355Z,2.83
2019-03-15T10:55:05.437Z,2.93
2019-03-15T10:57:37.283Z,2.80
2019-03-15T11:00:15.087Z,2.80
2019-03-15T11:02:48.183Z,2.70
2019-03-15T11:05:19.949Z,2.83
2019-03-15T11:07:53.546Z,3.17
2019-03-15T11:10:25.304Z,2.87
2019-03-15T11:12:57.386Z,3.33
2019-03-15T11:15:29.225Z,3.40
2019-03-15T11:18:00.985Z,3.93
2019-03-15T11:20:32.868Z,3.90
2019-03-15T11:23:04.648Z,4.13
2019-03-15T11:25:36.485Z,4.80
2019-03-15T11:28:11.607Z,4.93
2019-03-15T11:30:43.444Z,4.33
2019-03-15T11:33:15.208Z,4.63
2019-03-15T11:35:46.904Z,5.13
2019-03-15T11:38:19.820Z,4.80
2019-03-15T11:40:52.886Z,5.03
2019-03-15T11:43:24.724Z,4.80
2019-03-15T11:45:56.480Z,4.97
2019-03-15T11:48:29.288Z,5.07
2019-03-15T11:51:01.018Z,4.50
2019-03-15T11:53:32.801Z,5.30
2019-03-15T11:56:04.560Z,5.57
2019-03-15T11:58:37.716Z,5.40
2019-03-15T12:01:09.592Z,5.83
2019-03-15T12:03:52.587Z,5.57
2019-03-15T12:06:15.061Z,5.17
2019-03-15T12:08:47.212Z,5.30
2019-03-15T12:11:19.001Z,5.40
2019-03-15T12:13:51.924Z,5.47
2019-03-15T12:16:23.743Z,5.60
2019-03-15T12:18:55.519Z,5.20
2019-03-15T12:21:27.243Z,4.83
2019-03-15T12:23:59.304Z,4.63
2019-03-15T12:26:40.135Z,5.07
2019-03-15T12:29:04.658Z,5.10
2019-03-15T12:31:37.944Z,5.70
2019-03-15T12:34:09.914Z,4.60
2019-03-15T12:36:41.820Z,4.47
2019-03-15T12:39:13.549Z,4.50
2019-03-15T12:41:46.380Z,4.70
2019-03-15T12:44:18.260Z,4.87
2019-03-15T12:46:52.368Z,4.27
2019-03-15T12:49:25.637Z,5.23
2019-03-15T12:51:57.803Z,4.50
2019-03-15T12:54:30.928Z,4.53
2019-03-15T12:57:02.708Z,5.03
2019-03-15T12:59:35.925Z,3.80
2019-03-15T13:02:07.985Z,3.63
2019-03-15T13:04:39.770Z,3.50
2019-03-15T13:07:11.751Z,3.70
2019-03-15T13:09:43.721Z,3.77
2019-03-15T13:12:15.716Z,3.37
2019-03-15T13:14:47.490Z,3.77
2019-03-15T13:17:19.456Z,3.47
2019-03-15T13:19:55.476Z,3.67
2019-03-15T13:22:24.741Z,3.20
2019-03-15T13:24:56.477Z,3.43
2019-03-15T13:27:28.440Z,3.67
2019-03-15T13:30:00.416Z,3.40
2019-03-15T13:32:33.574Z,3.27
2019-03-15T13:35:07.745Z,3.77
2019-03-15T13:37:42.462Z,3.50
2019-03-15T13:40:14.484Z,3.60
2019-03-15T13:42:46.407Z,15.47
2019-03-15T13:45:18.300Z,10.87
2019-03-15T13:47:50.143Z,4.43
2019-03-15T13:50:22.185Z,4.17
2019-03-15T13:52:53.945Z,2.90
2019-03-15T13:55:25.918Z,2.77
2019-03-15T13:57:57.692Z,3.33
2019-03-15T14:00:30.663Z,3.40
2019-03-15T14:03:02.549Z,3.03
2019-03-15T14:05:35.812Z,3.10
2019-03-15T14:08:12.101Z,3.00
2019-03-15T14:10:49.103Z,2.43
2019-03-15T14:13:14.917Z,2.27
2019-03-15T14:15:47.910Z,2.00
2019-03-15T14:18:21.560Z,2.57
2019-03-15T14:20:53.150Z,2.23
2019-03-15T14:23:25.076Z,2.60
2019-03-15T14:25:56.885Z,2.40
2019-03-15T14:28:28.903Z,2.03
2019-03-15T14:31:00.705Z,2.23
2019-03-15T14:33:32.611Z,1.90
2019-03-15T14:36:05.449Z,2.27
2019-03-15T14:38:38.971Z,2.10
2019-03-15T14:41:11.080Z,2.00
2019-03-15T14:43:44.823Z,1.70
2019-03-15T14:46:18.427Z,2.00
2019-03-15T14:48:50.224Z,2.20
2019-03-15T14:51:22.146Z,1.73
2019-03-15T14:53:54.015Z,1.90
2019-03-15T14:56:25.831Z,1.63
2019-03-15T14:58:57.720Z,1.80
2019-03-15T15:01:29.634Z,1.50
2019-03-15T15:04:03.308Z,1.67
2019-03-15T15:06:37.017Z,1.43
2019-03-15T15:09:09.315Z,2.00
2019-03-15T15:11:41.322Z,1.57
2019-03-15T15:14:13.192Z,1.90
2019-03-15T15:16:46.250Z,1.73
2019-03-15T15:19:18.209Z,1.73
2019-03-15T15:21:52.841Z,1.80
2019-03-15T15:24:23.557Z,1.57
2019-03-15T15:26:55.427Z,1.80
2019-03-15T15:29:27.233Z,1.57
2019-03-15T15:31:59.104Z,2.20
2019-03-15T15:34:32.177Z,1.37
2019-03-15T15:37:04.041Z,1.70
2019-03-15T15:39:35.988Z,1.60
2019-03-15T15:42:09.298Z,1.87
2019-03-15T15:44:41.157Z,1.70
2019-03-15T15:47:13.992Z,2.33
2019-03-15T15:49:47.279Z,1.87
2019-03-15T15:52:19.276Z,2.30
2019-03-15T15:54:51.211Z,2.10
2019-03-15T15:57:23.063Z,1.90
2019-03-15T15:59:54.844Z,1.73
2019-03-15T16:02:26.670Z,2.13
2019-03-15T16:05:00.432Z,2.40
2019-03-15T16:07:34.018Z,2.00
2019-03-15T16:10:06.740Z,2.27
2019-03-15T16:12:38.561Z,1.97
2019-03-15T16:15:11.700Z,2.27
2019-03-15T16:17:45.522Z,1.60
2019-03-15T16:20:17.297Z,2.20
2019-03-15T16:22:49.098Z,2.10
2019-03-15T16:25:20.970Z,2.80
2019-03-15T16:27:52.773Z,2.80
2019-03-15T16:30:24.676Z,2.10
2019-03-15T16:32:56.591Z,2.03
2019-03-15T16:35:28.651Z,2.23
2019-03-15T16:38:01.515Z,1.90
2019-03-15T16:40:33.605Z,2.55
2019-03-15T16:43:05.537Z,2.60
2019-03-15T16:45:37.406Z,2.20
2019-03-15T16:48:09.303Z,2.40
2019-03-15T16:53:48.321Z,2.20
2019-03-15T16:56:20.433Z,1.60
2019-03-15T16:58:52.562Z,1.30
2019-03-15T17:01:24.355Z,1.20
2019-03-15T17:03:56.507Z,1.67
2019-03-15T17:06:29.518Z,1.60
2019-03-15T17:09:01.494Z,1.30
2019-03-15T17:11:33.258Z,1.20
2019-03-15T17:14:05.136Z,1.50
2019-03-15T17:16:37.032Z,1.50
2019-03-15T17:19:10.703Z,1.37
2019-03-15T17:21:42.745Z,1.30
2019-03-15T17:24:14.518Z,1.10
2019-03-15T17:26:46.312Z,1.80
2019-03-15T17:29:18.107Z,1.63
2019-03-15T17:31:50.993Z,1.43
2019-03-15T17:34:22.742Z,1.57
2019-03-15T17:37:05.996Z,1.40
2019-03-15T17:39:28.738Z,1.53
2019-03-15T17:42:11.028Z,1.50
2019-03-15T17:44:43.121Z,1.43
2019-03-15T17:47:15.188Z,1.50
2019-03-15T17:49:47.156Z,2.07
2019-03-15T17:52:37.954Z,1.80
2019-03-15T17:55:10.025Z,1.50
2019-03-15T17:57:45.573Z,1.70
2019-03-15T18:00:33.651Z,1.37
2019-03-15T18:03:20.092Z,1.00
2019-03-15T18:05:40.219Z,1.23
2019-03-15T18:08:12.021Z,1.20
2019-03-15T18:10:43.856Z,1.20
2019-03-15T18:13:15.941Z,1.30
2019-03-15T18:15:47.749Z,1.60
2019-03-15T18:18:19.737Z,1.57
2019-03-15T18:20:51.511Z,1.43
2019-03-15T18:23:23.734Z,1.67
2019-03-15T18:25:56.764Z,1.47
2019-03-15T18:28:28.938Z,3.10
2019-03-15T18:31:00.772Z,1.90
2019-03-15T18:33:32.613Z,1.83
2019-03-15T18:36:04.339Z,1.97
2019-03-15T18:38:36.160Z,1.80
2019-03-15T18:41:07.969Z,2.03
2019-03-15T18:43:39.857Z,2.03
2019-03-15T18:46:11.894Z,1.73
2019-03-15T18:48:47.419Z,1.60
2019-03-15T18:51:19.217Z,2.27
2019-03-15T18:53:51.116Z,2.80
2019-03-15T18:56:23.186Z,3.30
2019-03-15T18:58:56.215Z,3.43
2019-03-15T19:01:28.089Z,2.90
2019-03-15T19:03:59.942Z,2.67
2019-03-15T19:06:33.276Z,2.33
2019-03-15T19:09:07.184Z,2.10
2019-03-15T19:11:39.105Z,1.83
2019-03-15T19:14:11.401Z,2.07
2019-03-15T19:16:44.790Z,1.80
2019-03-15T19:19:16.966Z,1.87
2019-03-15T19:21:48.843Z,1.93
2019-03-15T19:24:20.714Z,2.20
2019-03-15T19:26:52.892Z,1.83
2019-03-15T19:29:24.747Z,1.83
2019-03-15T19:31:56.695Z,2.00
2019-03-15T19:34:28.565Z,2.30
2019-03-15T19:37:01.047Z,2.40
2019-03-15T19:39:33.155Z,3.03
2019-03-15T19:42:05.180Z,2.23
2019-03-15T19:44:36.971Z,2.20
2019-03-15T19:47:09.043Z,2.30
2019-03-15T19:49:41.085Z,2.23
2019-03-15T19:52:12.928Z,2.40
2019-03-15T19:54:44.938Z,2.60
2019-03-15T19:57:16.838Z,2.57
2019-03-15T19:59:49.694Z,2.97
2019-03-15T20:02:21.760Z,2.57
2019-03-15T20:04:53.528Z,2.37
2019-03-15T20:07:25.488Z,3.60
2019-03-15T20:09:57.295Z,3.73
2019-03-15T20:12:29.285Z,3.20
2019-03-15T20:15:01.112Z,2.30
2019-03-15T20:17:33.024Z,3.13
2019-03-15T20:20:05.734Z,3.10
2019-03-15T20:22:37.757Z,3.07
2019-03-15T20:25:13.157Z,2.20
2019-03-15T20:27:45.100Z,2.63
2019-03-15T20:30:21.453Z,3.17
2019-03-15T20:32:51.277Z,2.57
2019-03-15T20:35:23.288Z,2.27
2019-03-15T20:37:57.990Z,2.17
2019-03-15T20:40:29.930Z,2.13
2019-03-15T20:43:03.501Z,1.97
2019-03-15T20:45:37.227Z,2.13
2019-03-15T20:48:15.339Z,2.17
2019-03-15T20:50:47.634Z,2.17
2019-03-15T20:53:19.523Z,2.30
2019-03-15T20:55:51.636Z,2.77
2019-03-15T20:58:23.592Z,2.30
2019-03-15T21:00:55.479Z,1.83
2019-03-15T21:03:27.211Z,2.20
2019-03-15T21:05:59.285Z,2.13
2019-03-15T21:08:51.774Z,2.17
2019-03-15T21:11:27.242Z,2.27
2019-03-15T21:13:59.488Z,2.10
2019-03-15T21:16:31.376Z,1.93
2019-03-15T21:19:03.716Z,1.90
2019-03-15T21:21:35.713Z,1.93
2019-03-15T21:24:08.206Z,2.30
2019-03-15T21:26:40.195Z,1.90
2019-03-15T21:29:12.179Z,1.67
2019-03-15T21:31:43.979Z,1.97
2019-03-15T21:34:16.231Z,2.47
2019-03-15T21:37:08.555Z,2.13
2019-03-15T21:39:40.479Z,2.20
2019-03-15T21:42:13.479Z,2.33
2019-03-15T21:44:45.512Z,2.10
2019-03-15T21:47:19.378Z,2.37
2019-03-15T21:49:52.634Z,2.10
2019-03-15T21:52:24.504Z,2.00
2019-03-15T21:54:57.564Z,2.10
2019-03-15T21:57:29.474Z,2.83
2019-03-15T22:00:02.555Z,2.53
2019-03-15T22:02:34.429Z,2.13
2019-03-15T22:05:09.782Z,2.07
2019-03-15T22:07:41.647Z,1.90
2019-03-15T22:10:13.493Z,1.77
2019-03-15T22:12:45.620Z,2.07
2019-03-15T22:15:19.228Z,2.00
2019-03-15T22:17:51.270Z,2.27
2019-03-15T22:20:23.197Z,2.23
2019-03-15T22:22:55.219Z,2.37
2019-03-15T22:25:29.927Z,2.57
2019-03-15T22:28:03.270Z,2.30
2019-03-15T22:30:35.442Z,2.40
2019-03-15T22:33:07.257Z,2.40
2019-03-15T22:35:39.187Z,2.87
2019-03-15T22:38:11.065Z,2.83
2019-03-15T22:40:44.153Z,3.57
2019-03-15T22:43:16.034Z,3.40
2019-03-15T22:45:49.184Z,2.90
2019-03-15T22:48:21.102Z,3.23
2019-03-15T22:50:53.046Z,3.03
2019-03-15T22:53:25.123Z,2.40
2019-03-15T22:55:57.900Z,2.30
2019-03-15T22:58:29.942Z,2.47
2019-03-15T23:01:01.999Z,2.40
2019-03-15T23:03:34.125Z,3.47
2019-03-15T23:06:06.534Z,2.80
2019-03-15T23:08:39.065Z,2.37
2019-03-15T23:11:10.938Z,2.33
2019-03-15T23:13:42.728Z,2.57
2019-03-15T23:16:14.542Z,2.63
2019-03-15T23:18:46.537Z,2.20
2019-03-15T23:21:38.772Z,3.00
2019-03-15T23:24:12.376Z,2.43
2019-03-15T23:26:45.734Z,2.77
2019-03-15T23:29:17.564Z,2.17
2019-03-15T23:31:49.487Z,2.00
2019-03-15T23:34:23.317Z,2.53
2019-03-15T23:36:55.160Z,2.60
2019-03-15T23:39:32.442Z,2.63
2019-03-15T23:42:04.465Z,2.70
2019-03-15T23:44:36.375Z,2.27
2019-03-15T23:47:08.249Z,2.80
2019-03-15T23:49:44.843Z,2.30
2019-03-15T23:52:16.824Z,2.87
2019-03-15T23:54:50.234Z,2.47
2019-03-15T23:57:22.274Z,2.80
2019-03-15T23:59:54.254Z,2.80
